sensor_id;sensor_type;location;lat;lon;timestamp;temperature;humidity
79494;SHT31;68951;53.130;18.104;2023-07-09T00:01:22;17.22;62.65
79494;SHT31;68951;53.130;18.104;2023-07-09T00:03:49;17.18;62.72
79494;SHT31;68951;53.130;18.104;2023-07-09T00:06:18;17.14;62.79
79494;SHT31;68951;53.130;18.104;2023-07-09T00:08:45;17.08;62.89
79494;SHT31;68951;53.130;18.104;2023-07-09T00:11:14;17.06;62.96
79494;SHT31;68951;53.130;18.104;2023-07-09T00:13:42;17.01;63.06
79494;SHT31;68951;53.130;18.104;2023-07-09T00:16:13;16.96;63.16
79494;SHT31;68951;53.130;18.104;2023-07-09T00:18:47;16.90;63.27
79494;SHT31;68951;53.130;18.104;2023-07-09T00:21:18;16.84;63.37
79494;SHT31;68951;53.130;18.104;2023-07-09T00:23:47;16.78;63.51
79494;SHT31;68951;53.130;18.104;2023-07-09T00:26:15;16.73;63.63
79494;SHT31;68951;53.130;18.104;2023-07-09T00:28:44;16.70;63.75
79494;SHT31;68951;53.130;18.104;2023-07-09T00:31:11;16.67;63.89
79494;SHT31;68951;53.130;18.104;2023-07-09T00:33:41;16.65;64.00
79494;SHT31;68951;53.130;18.104;2023-07-09T00:36:52;16.65;64.09
79494;SHT31;68951;53.130;18.104;2023-07-09T00:38:59;16.62;64.19
79494;SHT31;68951;53.130;18.104;2023-07-09T00:41:34;16.58;64.26
79494;SHT31;68951;53.130;18.104;2023-07-09T00:49:24;16.44;64.55
79494;SHT31;68951;53.130;18.104;2023-07-09T00:51:55;16.40;64.67
79494;SHT31;68951;53.130;18.104;2023-07-09T00:54:37;16.33;64.78
79494;SHT31;68951;53.130;18.104;2023-07-09T00:57:10;16.28;64.93
79494;SHT31;68951;53.130;18.104;2023-07-09T00:59:44;16.29;65.00
79494;SHT31;68951;53.130;18.104;2023-07-09T01:02:20;16.25;65.08
79494;SHT31;68951;53.130;18.104;2023-07-09T01:04:56;16.24;65.17
79494;SHT31;68951;53.130;18.104;2023-07-09T01:07:30;16.19;65.24
79494;SHT31;68951;53.130;18.104;2023-07-09T01:09:57;16.16;65.30
79494;SHT31;68951;53.130;18.104;2023-07-09T01:12:24;16.12;65.39
79494;SHT31;68951;53.130;18.104;2023-07-09T01:14:52;16.05;65.47
79494;SHT31;68951;53.130;18.104;2023-07-09T01:17:26;15.97;65.59
79494;SHT31;68951;53.130;18.104;2023-07-09T01:19:55;15.92;65.73
79494;SHT31;68951;53.130;18.104;2023-07-09T01:22:23;15.87;65.82
79494;SHT31;68951;53.130;18.104;2023-07-09T01:24:59;15.85;65.91
79494;SHT31;68951;53.130;18.104;2023-07-09T01:27:39;15.84;66.00
79494;SHT31;68951;53.130;18.104;2023-07-09T01:30:32;15.76;66.10
79494;SHT31;68951;53.130;18.104;2023-07-09T01:33:02;15.72;66.21
79494;SHT31;68951;53.130;18.104;2023-07-09T01:35:31;15.71;66.28
79494;SHT31;68951;53.130;18.104;2023-07-09T01:38:01;15.68;66.36
79494;SHT31;68951;53.130;18.104;2023-07-09T01:40:29;15.65;66.44
79494;SHT31;68951;53.130;18.104;2023-07-09T01:42:56;15.61;66.53
79494;SHT31;68951;53.130;18.104;2023-07-09T01:45:24;15.60;66.64
79494;SHT31;68951;53.130;18.104;2023-07-09T01:47:52;15.57;66.69
79494;SHT31;68951;53.130;18.104;2023-07-09T01:50:21;15.59;66.77
79494;SHT31;68951;53.130;18.104;2023-07-09T01:52:50;15.60;66.80
79494;SHT31;68951;53.130;18.104;2023-07-09T01:55:18;15.61;66.81
79494;SHT31;68951;53.130;18.104;2023-07-09T01:57:45;15.63;66.89
79494;SHT31;68951;53.130;18.104;2023-07-09T02:00:13;15.61;66.90
79494;SHT31;68951;53.130;18.104;2023-07-09T02:02:43;15.60;66.98
79494;SHT31;68951;53.130;18.104;2023-07-09T02:05:13;15.56;67.04
79494;SHT31;68951;53.130;18.104;2023-07-09T02:07:46;15.48;67.11
79494;SHT31;68951;53.130;18.104;2023-07-09T02:10:14;15.40;67.23
79494;SHT31;68951;53.130;18.104;2023-07-09T02:12:43;15.41;67.33
79494;SHT31;68951;53.130;18.104;2023-07-09T02:15:11;15.43;67.40
79494;SHT31;68951;53.130;18.104;2023-07-09T02:17:38;15.44;67.48
79494;SHT31;68951;53.130;18.104;2023-07-09T02:20:05;15.46;67.50
79494;SHT31;68951;53.130;18.104;2023-07-09T02:22:35;15.45;67.53
79494;SHT31;68951;53.130;18.104;2023-07-09T02:25:04;15.44;67.60
79494;SHT31;68951;53.130;18.104;2023-07-09T02:27:32;15.42;67.66
79494;SHT31;68951;53.130;18.104;2023-07-09T02:29:59;15.41;67.73
79494;SHT31;68951;53.130;18.104;2023-07-09T02:32:26;15.38;67.80
79494;SHT31;68951;53.130;18.104;2023-07-09T02:34:54;15.37;67.86
79494;SHT31;68951;53.130;18.104;2023-07-09T02:37:22;15.40;67.96
79494;SHT31;68951;53.130;18.104;2023-07-09T02:39:52;15.43;68.00
79494;SHT31;68951;53.130;18.104;2023-07-09T02:42:20;15.44;68.08
79494;SHT31;68951;53.130;18.104;2023-07-09T02:44:49;15.47;68.15
79494;SHT31;68951;53.130;18.104;2023-07-09T02:47:17;15.50;68.20
79494;SHT31;68951;53.130;18.104;2023-07-09T02:49:44;15.48;68.25
79494;SHT31;68951;53.130;18.104;2023-07-09T02:52:11;15.46;68.38
79494;SHT31;68951;53.130;18.104;2023-07-09T02:54:38;15.47;68.49
79494;SHT31;68951;53.130;18.104;2023-07-09T02:57:06;15.48;68.57
79494;SHT31;68951;53.130;18.104;2023-07-09T02:59:33;15.52;68.65
79494;SHT31;68951;53.130;18.104;2023-07-09T03:02:00;15.56;68.74
79494;SHT31;68951;53.130;18.104;2023-07-09T03:04:28;15.59;68.80
79494;SHT31;68951;53.130;18.104;2023-07-09T03:06:57;15.61;68.89
79494;SHT31;68951;53.130;18.104;2023-07-09T03:09:26;15.60;68.95
79494;SHT31;68951;53.130;18.104;2023-07-09T03:11:54;15.64;69.00
79494;SHT31;68951;53.130;18.104;2023-07-09T03:14:21;15.65;69.03
79494;SHT31;68951;53.130;18.104;2023-07-09T03:16:48;15.65;69.09
79494;SHT31;68951;53.130;18.104;2023-07-09T03:19:15;15.67;69.10
79494;SHT31;68951;53.130;18.104;2023-07-09T03:21:42;15.71;69.20
79494;SHT31;68951;53.130;18.104;2023-07-09T03:24:09;15.75;69.26
79494;SHT31;68951;53.130;18.104;2023-07-09T03:26:36;15.79;69.30
79494;SHT31;68951;53.130;18.104;2023-07-09T03:29:03;15.81;69.31
79494;SHT31;68951;53.130;18.104;2023-07-09T03:31:30;15.82;69.36
79494;SHT31;68951;53.130;18.104;2023-07-09T03:34:01;15.84;69.40
79494;SHT31;68951;53.130;18.104;2023-07-09T03:36:28;15.87;69.46
79494;SHT31;68951;53.130;18.104;2023-07-09T03:38:55;15.93;69.51
79494;SHT31;68951;53.130;18.104;2023-07-09T03:41:22;16.00;69.55
79494;SHT31;68951;53.130;18.104;2023-07-09T03:43:48;16.03;69.57
79494;SHT31;68951;53.130;18.104;2023-07-09T03:46:16;16.08;69.59
79494;SHT31;68951;53.130;18.104;2023-07-09T03:48:43;16.15;69.60
79494;SHT31;68951;53.130;18.104;2023-07-09T03:51:10;16.17;69.60
79494;SHT31;68951;53.130;18.104;2023-07-09T03:53:37;16.17;69.60
79494;SHT31;68951;53.130;18.104;2023-07-09T03:56:04;16.18;69.63
79494;SHT31;68951;53.130;18.104;2023-07-09T03:58:31;16.20;69.70
79494;SHT31;68951;53.130;18.104;2023-07-09T04:00:58;16.25;69.71
79494;SHT31;68951;53.130;18.104;2023-07-09T04:03:26;16.32;69.72
79494;SHT31;68951;53.130;18.104;2023-07-09T04:05:53;16.37;69.71
79494;SHT31;68951;53.130;18.104;2023-07-09T04:08:20;16.42;69.77
79494;SHT31;68951;53.130;18.104;2023-07-09T04:10:46;16.48;69.79
79494;SHT31;68951;53.130;18.104;2023-07-09T04:13:13;16.52;69.80
79494;SHT31;68951;53.130;18.104;2023-07-09T04:15:40;16.55;69.80
79494;SHT31;68951;53.130;18.104;2023-07-09T04:18:07;16.56;69.80
79494;SHT31;68951;53.130;18.104;2023-07-09T04:20:34;16.62;69.88
79494;SHT31;68951;53.130;18.104;2023-07-09T04:23:01;16.69;69.90
79494;SHT31;68951;53.130;18.104;2023-07-09T04:25:28;16.82;69.94
79494;SHT31;68951;53.130;18.104;2023-07-09T04:27:55;16.98;69.95
79494;SHT31;68951;53.130;18.104;2023-07-09T04:30:22;17.10;69.90
79494;SHT31;68951;53.130;18.104;2023-07-09T04:32:50;17.20;69.88
79494;SHT31;68951;53.130;18.104;2023-07-09T04:35:17;17.30;69.83
79494;SHT31;68951;53.130;18.104;2023-07-09T04:37:44;17.39;69.80
79494;SHT31;68951;53.130;18.104;2023-07-09T04:40:11;17.47;69.71
79494;SHT31;68951;53.130;18.104;2023-07-09T04:42:39;17.52;69.65
79494;SHT31;68951;53.130;18.104;2023-07-09T04:45:07;17.60;69.58
79494;SHT31;68951;53.130;18.104;2023-07-09T04:47:36;17.68;69.50
79494;SHT31;68951;53.130;18.104;2023-07-09T04:50:05;17.77;69.38
79494;SHT31;68951;53.130;18.104;2023-07-09T04:52:34;17.88;69.28
79494;SHT31;68951;53.130;18.104;2023-07-09T04:55:02;17.95;69.16
79494;SHT31;68951;53.130;18.104;2023-07-09T04:57:29;17.99;69.00
79494;SHT31;68951;53.130;18.104;2023-07-09T04:59:56;18.04;68.90
79494;SHT31;68951;53.130;18.104;2023-07-09T05:02:23;18.08;68.76
79494;SHT31;68951;53.130;18.104;2023-07-09T05:04:50;18.12;68.68
79494;SHT31;68951;53.130;18.104;2023-07-09T05:07:18;18.17;68.60
79494;SHT31;68951;53.130;18.104;2023-07-09T05:09:45;18.24;68.49
79494;SHT31;68951;53.130;18.104;2023-07-09T05:12:11;18.29;68.40
79494;SHT31;68951;53.130;18.104;2023-07-09T05:14:39;18.39;68.32
79494;SHT31;68951;53.130;18.104;2023-07-09T05:17:07;18.50;68.19
79494;SHT31;68951;53.130;18.104;2023-07-09T05:19:35;18.61;67.99
79494;SHT31;68951;53.130;18.104;2023-07-09T05:22:02;18.69;67.77
79494;SHT31;68951;53.130;18.104;2023-07-09T05:24:29;18.76;67.53
79494;SHT31;68951;53.130;18.104;2023-07-09T05:26:56;18.83;67.32
79494;SHT31;68951;53.130;18.104;2023-07-09T05:29:23;18.89;67.11
79494;SHT31;68951;53.130;18.104;2023-07-09T05:31:52;18.94;66.95
79494;SHT31;68951;53.130;18.104;2023-07-09T05:34:19;18.99;66.71
79494;SHT31;68951;53.130;18.104;2023-07-09T05:36:47;19.03;66.53
79494;SHT31;68951;53.130;18.104;2023-07-09T05:39:15;19.09;66.35
79494;SHT31;68951;53.130;18.104;2023-07-09T05:41:42;19.13;66.16
79494;SHT31;68951;53.130;18.104;2023-07-09T05:44:10;19.17;65.92
79494;SHT31;68951;53.130;18.104;2023-07-09T05:46:37;19.23;65.76
79494;SHT31;68951;53.130;18.104;2023-07-09T05:49:05;19.27;65.55
79494;SHT31;68951;53.130;18.104;2023-07-09T05:51:33;19.35;65.38
79494;SHT31;68951;53.130;18.104;2023-07-09T05:54:00;19.40;65.22
79494;SHT31;68951;53.130;18.104;2023-07-09T05:56:28;19.44;64.89
79494;SHT31;68951;53.130;18.104;2023-07-09T05:58:55;19.47;64.65
79494;SHT31;68951;53.130;18.104;2023-07-09T06:01:22;19.53;64.51
79494;SHT31;68951;53.130;18.104;2023-07-09T06:03:50;19.57;64.25
79494;SHT31;68951;53.130;18.104;2023-07-09T06:06:17;19.60;64.02
79494;SHT31;68951;53.130;18.104;2023-07-09T06:08:43;19.66;63.86
79494;SHT31;68951;53.130;18.104;2023-07-09T06:11:10;19.74;63.68
79494;SHT31;68951;53.130;18.104;2023-07-09T06:13:37;19.80;63.41
79494;SHT31;68951;53.130;18.104;2023-07-09T06:16:04;19.85;62.88
79494;SHT31;68951;53.130;18.104;2023-07-09T06:18:32;19.92;62.56
79494;SHT31;68951;53.130;18.104;2023-07-09T06:21:01;19.98;62.28
79494;SHT31;68951;53.130;18.104;2023-07-09T06:23:30;20.03;62.00
79494;SHT31;68951;53.130;18.104;2023-07-09T06:25:57;20.11;61.67
79494;SHT31;68951;53.130;18.104;2023-07-09T06:28:25;20.19;61.12
79494;SHT31;68951;53.130;18.104;2023-07-09T06:30:56;20.27;60.67
79494;SHT31;68951;53.130;18.104;2023-07-09T06:33:24;20.33;60.21
79494;SHT31;68951;53.130;18.104;2023-07-09T06:35:53;20.42;59.87
79494;SHT31;68951;53.130;18.104;2023-07-09T06:38:23;20.48;59.71
79494;SHT31;68951;53.130;18.104;2023-07-09T06:40:51;20.53;59.46
79494;SHT31;68951;53.130;18.104;2023-07-09T06:43:19;20.59;59.22
79494;SHT31;68951;53.130;18.104;2023-07-09T06:45:56;20.67;58.88
79494;SHT31;68951;53.130;18.104;2023-07-09T06:48:27;20.73;58.61
79494;SHT31;68951;53.130;18.104;2023-07-09T06:50:56;20.78;58.49
79494;SHT31;68951;53.130;18.104;2023-07-09T06:53:25;20.85;58.37
79494;SHT31;68951;53.130;18.104;2023-07-09T06:55:53;20.92;58.26
79494;SHT31;68951;53.130;18.104;2023-07-09T06:58:22;20.98;58.19
79494;SHT31;68951;53.130;18.104;2023-07-09T07:00:52;21.03;57.96
79494;SHT31;68951;53.130;18.104;2023-07-09T07:03:19;21.08;57.82
79494;SHT31;68951;53.130;18.104;2023-07-09T07:05:46;21.14;57.63
79494;SHT31;68951;53.130;18.104;2023-07-09T07:08:16;21.17;57.36
79494;SHT31;68951;53.130;18.104;2023-07-09T07:10:47;21.22;57.17
79494;SHT31;68951;53.130;18.104;2023-07-09T07:13:16;21.26;57.07
79494;SHT31;68951;53.130;18.104;2023-07-09T07:15:44;21.32;56.92
79494;SHT31;68951;53.130;18.104;2023-07-09T07:18:15;21.38;56.79
79494;SHT31;68951;53.130;18.104;2023-07-09T07:20:43;21.44;56.69
79494;SHT31;68951;53.130;18.104;2023-07-09T07:23:10;21.50;56.55
79494;SHT31;68951;53.130;18.104;2023-07-09T07:25:37;21.55;56.46
79494;SHT31;68951;53.130;18.104;2023-07-09T07:28:04;21.61;56.30
79494;SHT31;68951;53.130;18.104;2023-07-09T07:30:30;21.68;56.10
79494;SHT31;68951;53.130;18.104;2023-07-09T07:32:59;21.75;55.89
79494;SHT31;68951;53.130;18.104;2023-07-09T07:35:25;21.83;55.62
79494;SHT31;68951;53.130;18.104;2023-07-09T07:37:52;21.89;55.39
79494;SHT31;68951;53.130;18.104;2023-07-09T07:40:20;21.96;55.18
79494;SHT31;68951;53.130;18.104;2023-07-09T07:42:47;22.04;55.04
79494;SHT31;68951;53.130;18.104;2023-07-09T07:45:14;22.10;54.86
79494;SHT31;68951;53.130;18.104;2023-07-09T07:47:42;22.16;54.71
79494;SHT31;68951;53.130;18.104;2023-07-09T07:50:09;22.23;54.50
79494;SHT31;68951;53.130;18.104;2023-07-09T07:52:37;22.28;54.37
79494;SHT31;68951;53.130;18.104;2023-07-09T07:55:04;22.35;54.30
79494;SHT31;68951;53.130;18.104;2023-07-09T07:57:35;22.44;54.30
79494;SHT31;68951;53.130;18.104;2023-07-09T08:00:02;22.56;54.15
79494;SHT31;68951;53.130;18.104;2023-07-09T08:02:29;22.67;53.99
79494;SHT31;68951;53.130;18.104;2023-07-09T08:04:56;22.77;53.77
79494;SHT31;68951;53.130;18.104;2023-07-09T08:07:23;22.84;53.37
79494;SHT31;68951;53.130;18.104;2023-07-09T08:09:50;22.90;53.02
79494;SHT31;68951;53.130;18.104;2023-07-09T08:12:17;22.96;52.75
79494;SHT31;68951;53.130;18.104;2023-07-09T08:14:44;23.04;52.41
79494;SHT31;68951;53.130;18.104;2023-07-09T08:17:12;23.12;52.00
79494;SHT31;68951;53.130;18.104;2023-07-09T08:19:43;23.20;51.73
79494;SHT31;68951;53.130;18.104;2023-07-09T08:22:16;23.30;51.17
79494;SHT31;68951;53.130;18.104;2023-07-09T08:24:44;23.42;50.69
79494;SHT31;68951;53.130;18.104;2023-07-09T08:27:11;23.51;50.63
79494;SHT31;68951;53.130;18.104;2023-07-09T08:29:38;23.53;50.48
79494;SHT31;68951;53.130;18.104;2023-07-09T08:32:06;23.55;50.47
79494;SHT31;68951;53.130;18.104;2023-07-09T08:34:35;23.67;50.16
79494;SHT31;68951;53.130;18.104;2023-07-09T08:37:05;23.79;49.69
79494;SHT31;68951;53.130;18.104;2023-07-09T08:39:33;23.91;49.30
79494;SHT31;68951;53.130;18.104;2023-07-09T08:42:05;24.00;48.74
79494;SHT31;68951;53.130;18.104;2023-07-09T08:44:42;24.11;48.48
79494;SHT31;68951;53.130;18.104;2023-07-09T08:47:34;24.24;48.16
79494;SHT31;68951;53.130;18.104;2023-07-09T08:50:05;24.37;47.95
79494;SHT31;68951;53.130;18.104;2023-07-09T08:52:47;24.51;47.34
79494;SHT31;68951;53.130;18.104;2023-07-09T08:55:21;24.64;46.65
79494;SHT31;68951;53.130;18.104;2023-07-09T08:57:55;24.80;45.92
79494;SHT31;68951;53.130;18.104;2023-07-09T09:03:30;25.12;44.59
79494;SHT31;68951;53.130;18.104;2023-07-09T09:06:14;25.24;44.29
79494;SHT31;68951;53.130;18.104;2023-07-09T09:11:29;25.56;43.68
79494;SHT31;68951;53.130;18.104;2023-07-09T09:13:59;25.71;43.35
79494;SHT31;68951;53.130;18.104;2023-07-09T09:16:33;25.90;43.00
79494;SHT31;68951;53.130;18.104;2023-07-09T09:19:11;26.10;42.75
79494;SHT31;68951;53.130;18.104;2023-07-09T09:22:05;26.28;42.34
79494;SHT31;68951;53.130;18.104;2023-07-09T09:24:39;26.43;42.20
79494;SHT31;68951;53.130;18.104;2023-07-09T09:27:35;26.64;42.11
79494;SHT31;68951;53.130;18.104;2023-07-09T09:30:04;26.83;41.90
79494;SHT31;68951;53.130;18.104;2023-07-09T09:32:45;27.01;41.59
79494;SHT31;68951;53.130;18.104;2023-07-09T09:35:25;27.18;41.25
79494;SHT31;68951;53.130;18.104;2023-07-09T09:37:56;27.41;40.98
79494;SHT31;68951;53.130;18.104;2023-07-09T09:40:26;27.59;40.67
79494;SHT31;68951;53.130;18.104;2023-07-09T09:42:56;27.78;40.36
79494;SHT31;68951;53.130;18.104;2023-07-09T09:45:26;27.97;39.92
79494;SHT31;68951;53.130;18.104;2023-07-09T09:48:00;28.09;39.42
79494;SHT31;68951;53.130;18.104;2023-07-09T09:50:38;28.21;39.08
79494;SHT31;68951;53.130;18.104;2023-07-09T09:53:07;28.41;39.07
79494;SHT31;68951;53.130;18.104;2023-07-09T09:55:38;28.66;38.77
79494;SHT31;68951;53.130;18.104;2023-07-09T09:58:10;28.83;38.33
79494;SHT31;68951;53.130;18.104;2023-07-09T10:00:46;29.00;38.19
79494;SHT31;68951;53.130;18.104;2023-07-09T10:03:17;29.25;37.88
79494;SHT31;68951;53.130;18.104;2023-07-09T10:05:49;29.48;37.47
79494;SHT31;68951;53.130;18.104;2023-07-09T10:11:36;30.00;36.53
79494;SHT31;68951;53.130;18.104;2023-07-09T10:17:20;30.37;35.80
79494;SHT31;68951;53.130;18.104;2023-07-09T10:20:02;30.58;35.57
79494;SHT31;68951;53.130;18.104;2023-07-09T10:40:47;31.62;33.23
79494;SHT31;68951;53.130;18.104;2023-07-09T10:43:21;31.80;33.01
79494;SHT31;68951;53.130;18.104;2023-07-09T10:46:34;32.13;32.39
79494;SHT31;68951;53.130;18.104;2023-07-09T10:49:08;32.23;31.82
79494;SHT31;68951;53.130;18.104;2023-07-09T10:51:50;32.38;31.49
79494;SHT31;68951;53.130;18.104;2023-07-09T10:57:29;32.60;31.07
79494;SHT31;68951;53.130;18.104;2023-07-09T11:00:20;32.97;31.20
79494;SHT31;68951;53.130;18.104;2023-07-09T11:03:14;33.44;30.89
79494;SHT31;68951;53.130;18.104;2023-07-09T11:05:46;33.68;30.56
79494;SHT31;68951;53.130;18.104;2023-07-09T11:08:24;34.00;30.34
79494;SHT31;68951;53.130;18.104;2023-07-09T11:11:06;34.31;29.78
79494;SHT31;68951;53.130;18.104;2023-07-09T11:13:47;34.44;29.40
79494;SHT31;68951;53.130;18.104;2023-07-09T11:16:30;34.64;28.95
79494;SHT31;68951;53.130;18.104;2023-07-09T11:19:05;34.89;28.58
79494;SHT31;68951;53.130;18.104;2023-07-09T11:21:44;35.09;28.33
79494;SHT31;68951;53.130;18.104;2023-07-09T11:24:48;35.46;28.10
79494;SHT31;68951;53.130;18.104;2023-07-09T11:27:31;35.68;27.65
79494;SHT31;68951;53.130;18.104;2023-07-09T11:30:00;35.64;27.56
79494;SHT31;68951;53.130;18.104;2023-07-09T11:32:46;35.68;27.42
79494;SHT31;68951;53.130;18.104;2023-07-09T11:35:20;35.88;27.31
79494;SHT31;68951;53.130;18.104;2023-07-09T11:37:50;36.01;27.14
79494;SHT31;68951;53.130;18.104;2023-07-09T11:40:22;36.29;26.87
79494;SHT31;68951;53.130;18.104;2023-07-09T11:42:56;36.49;26.65
79494;SHT31;68951;53.130;18.104;2023-07-09T11:45:27;36.76;26.60
79494;SHT31;68951;53.130;18.104;2023-07-09T11:48:01;36.90;26.51
79494;SHT31;68951;53.130;18.104;2023-07-09T11:50:53;36.80;26.24
79494;SHT31;68951;53.130;18.104;2023-07-09T11:53:40;36.60;26.09
79494;SHT31;68951;53.130;18.104;2023-07-09T11:56:12;36.88;26.22
79494;SHT31;68951;53.130;18.104;2023-07-09T11:58:52;37.12;26.19
79494;SHT31;68951;53.130;18.104;2023-07-09T12:01:23;37.36;26.24
79494;SHT31;68951;53.130;18.104;2023-07-09T12:03:56;37.71;26.06
79494;SHT31;68951;53.130;18.104;2023-07-09T12:06:25;37.33;25.83
79494;SHT31;68951;53.130;18.104;2023-07-09T12:08:55;37.05;25.92
79494;SHT31;68951;53.130;18.104;2023-07-09T12:11:33;37.26;26.03
79494;SHT31;68951;53.130;18.104;2023-07-09T12:14:02;37.65;25.83
79494;SHT31;68951;53.130;18.104;2023-07-09T12:16:36;37.82;25.56
79494;SHT31;68951;53.130;18.104;2023-07-09T12:19:07;38.07;25.64
79494;SHT31;68951;53.130;18.104;2023-07-09T12:21:38;38.41;25.66
79494;SHT31;68951;53.130;18.104;2023-07-09T12:26:56;38.67;25.48
79494;SHT31;68951;53.130;18.104;2023-07-09T12:29:30;38.70;25.33
79494;SHT31;68951;53.130;18.104;2023-07-09T12:32:12;38.73;25.19
79494;SHT31;68951;53.130;18.104;2023-07-09T12:34:46;38.29;25.02
79494;SHT31;68951;53.130;18.104;2023-07-09T12:37:17;38.26;25.24
79494;SHT31;68951;53.130;18.104;2023-07-09T12:39:49;38.56;25.26
79494;SHT31;68951;53.130;18.104;2023-07-09T12:42:24;38.67;25.21
79494;SHT31;68951;53.130;18.104;2023-07-09T12:45:01;38.69;25.17
79494;SHT31;68951;53.130;18.104;2023-07-09T12:47:29;38.77;25.09
79494;SHT31;68951;53.130;18.104;2023-07-09T12:50:00;38.70;24.96
79494;SHT31;68951;53.130;18.104;2023-07-09T12:52:36;38.74;25.05
79494;SHT31;68951;53.130;18.104;2023-07-09T12:55:20;39.02;25.08
79494;SHT31;68951;53.130;18.104;2023-07-09T12:57:50;39.18;24.96
79494;SHT31;68951;53.130;18.104;2023-07-09T13:00:18;39.43;24.95
79494;SHT31;68951;53.130;18.104;2023-07-09T13:02:50;39.73;24.78
79494;SHT31;68951;53.130;18.104;2023-07-09T13:05:23;39.83;24.64
79494;SHT31;68951;53.130;18.104;2023-07-09T13:07:58;39.93;24.56
79494;SHT31;68951;53.130;18.104;2023-07-09T13:10:28;39.83;24.47
79494;SHT31;68951;53.130;18.104;2023-07-09T13:13:01;39.60;24.46
79494;SHT31;68951;53.130;18.104;2023-07-09T13:18:15;39.63;24.32
79494;SHT31;68951;53.130;18.104;2023-07-09T13:20:45;39.59;24.32
79494;SHT31;68951;53.130;18.104;2023-07-09T13:23:17;39.58;24.24
79494;SHT31;68951;53.130;18.104;2023-07-09T13:25:45;39.76;24.21
79494;SHT31;68951;53.130;18.104;2023-07-09T13:28:17;39.94;24.24
79494;SHT31;68951;53.130;18.104;2023-07-09T13:30:53;39.94;24.22
79494;SHT31;68951;53.130;18.104;2023-07-09T13:33:25;39.67;24.20
79494;SHT31;68951;53.130;18.104;2023-07-09T13:35:52;39.82;24.29
79494;SHT31;68951;53.130;18.104;2023-07-09T13:38:21;39.90;24.21
79494;SHT31;68951;53.130;18.104;2023-07-09T13:40:51;39.50;24.15
79494;SHT31;68951;53.130;18.104;2023-07-09T13:43:26;38.88;24.29
79494;SHT31;68951;53.130;18.104;2023-07-09T13:45:59;38.88;24.48
79494;SHT31;68951;53.130;18.104;2023-07-09T13:48:31;38.58;24.46
79494;SHT31;68951;53.130;18.104;2023-07-09T13:50:59;38.67;24.59
79494;SHT31;68951;53.130;18.104;2023-07-09T13:53:29;38.95;24.59
79494;SHT31;68951;53.130;18.104;2023-07-09T13:55:58;39.12;24.49
79494;SHT31;68951;53.130;18.104;2023-07-09T13:58:26;39.20;24.36
79494;SHT31;68951;53.130;18.104;2023-07-09T14:00:56;39.05;24.24
79494;SHT31;68951;53.130;18.104;2023-07-09T14:03:31;39.06;24.28
79494;SHT31;68951;53.130;18.104;2023-07-09T14:05:59;39.04;24.31
79494;SHT31;68951;53.130;18.104;2023-07-09T14:08:26;38.94;24.40
79494;SHT31;68951;53.130;18.104;2023-07-09T14:10:53;38.86;24.54
79494;SHT31;68951;53.130;18.104;2023-07-09T14:13:23;38.87;24.53
79494;SHT31;68951;53.130;18.104;2023-07-09T14:15:52;38.88;24.53
79494;SHT31;68951;53.130;18.104;2023-07-09T14:18:21;38.81;24.61
79494;SHT31;68951;53.130;18.104;2023-07-09T14:20:50;38.87;24.63
79494;SHT31;68951;53.130;18.104;2023-07-09T14:23:17;38.91;24.56
79494;SHT31;68951;53.130;18.104;2023-07-09T14:25:45;38.89;24.56
79494;SHT31;68951;53.130;18.104;2023-07-09T14:28:15;38.92;24.61
79494;SHT31;68951;53.130;18.104;2023-07-09T14:30:48;38.78;24.70
79494;SHT31;68951;53.130;18.104;2023-07-09T14:33:18;38.72;24.75
79494;SHT31;68951;53.130;18.104;2023-07-09T14:35:47;38.60;24.74
79494;SHT31;68951;53.130;18.104;2023-07-09T14:38:17;38.52;24.74
79494;SHT31;68951;53.130;18.104;2023-07-09T14:40:46;38.57;24.70
79494;SHT31;68951;53.130;18.104;2023-07-09T14:43:16;38.53;24.71
79494;SHT31;68951;53.130;18.104;2023-07-09T14:45:43;38.35;24.80
79494;SHT31;68951;53.130;18.104;2023-07-09T14:48:11;38.13;24.90
79494;SHT31;68951;53.130;18.104;2023-07-09T14:50:42;37.79;25.02
79494;SHT31;68951;53.130;18.104;2023-07-09T14:53:14;37.45;25.17
79494;SHT31;68951;53.130;18.104;2023-07-09T14:55:52;37.09;25.29
79494;SHT31;68951;53.130;18.104;2023-07-09T14:58:21;36.79;25.50
79494;SHT31;68951;53.130;18.104;2023-07-09T15:00:50;36.44;25.60
79494;SHT31;68951;53.130;18.104;2023-07-09T15:03:19;36.20;25.74
79494;SHT31;68951;53.130;18.104;2023-07-09T15:05:52;36.06;25.89
79494;SHT31;68951;53.130;18.104;2023-07-09T15:08:23;36.01;26.04
79494;SHT31;68951;53.130;18.104;2023-07-09T15:10:52;35.90;26.15
79494;SHT31;68951;53.130;18.104;2023-07-09T15:13:31;35.73;26.21
79494;SHT31;68951;53.130;18.104;2023-07-09T15:16:01;35.50;26.29
79494;SHT31;68951;53.130;18.104;2023-07-09T15:18:30;35.19;26.43
79494;SHT31;68951;53.130;18.104;2023-07-09T15:21:00;34.99;26.65
79494;SHT31;68951;53.130;18.104;2023-07-09T15:23:29;34.78;26.72
79494;SHT31;68951;53.130;18.104;2023-07-09T15:25:57;34.52;26.87
79494;SHT31;68951;53.130;18.104;2023-07-09T15:28:24;34.13;27.12
79494;SHT31;68951;53.130;18.104;2023-07-09T15:30:51;33.83;27.31
79494;SHT31;68951;53.130;18.104;2023-07-09T15:33:18;33.58;27.59
79494;SHT31;68951;53.130;18.104;2023-07-09T15:35:47;33.33;27.86
79494;SHT31;68951;53.130;18.104;2023-07-09T15:40:53;32.85;28.34
79494;SHT31;68951;53.130;18.104;2023-07-09T15:43:21;32.64;28.50
79494;SHT31;68951;53.130;18.104;2023-07-09T15:45:49;32.39;28.72
79494;SHT31;68951;53.130;18.104;2023-07-09T15:48:22;32.16;28.94
79494;SHT31;68951;53.130;18.104;2023-07-09T15:50:59;32.02;29.23
79494;SHT31;68951;53.130;18.104;2023-07-09T15:53:29;31.89;29.37
79494;SHT31;68951;53.130;18.104;2023-07-09T15:55:58;31.79;29.55
79494;SHT31;68951;53.130;18.104;2023-07-09T15:58:34;31.69;29.69
79494;SHT31;68951;53.130;18.104;2023-07-09T16:01:13;31.51;29.85
79494;SHT31;68951;53.130;18.104;2023-07-09T16:03:43;31.39;30.06
79494;SHT31;68951;53.130;18.104;2023-07-09T16:06:15;31.29;30.22
79494;SHT31;68951;53.130;18.104;2023-07-09T16:08:44;31.21;30.39
79494;SHT31;68951;53.130;18.104;2023-07-09T16:11:16;31.11;30.57
79494;SHT31;68951;53.130;18.104;2023-07-09T16:13:47;31.03;30.68
79494;SHT31;68951;53.130;18.104;2023-07-09T16:16:15;30.95;30.79
79494;SHT31;68951;53.130;18.104;2023-07-09T16:18:48;30.87;30.96
79494;SHT31;68951;53.130;18.104;2023-07-09T16:23:50;30.70;31.12
79494;SHT31;68951;53.130;18.104;2023-07-09T16:26:18;30.61;31.20